sensor_id;sensor_type;location;lat;lon;timestamp;P1;durP1;ratioP1;P2;durP2;ratioP2
71937;SDS011;59810;48.800;9.086;2022-07-29T00:00:09;9.27;;;4.90;;
71937;SDS011;59810;48.800;9.086;2022-07-29T00:02:38;7.20;;;4.50;;
71937;SDS011;59810;48.800;9.086;2022-07-29T00:05:07;6.68;;;4.35;;
71937;SDS011;59810;48.800;9.086;2022-07-29T00:07:33;6.83;;;4.23;;
71937;SDS011;59810;48.800;9.086;2022-07-29T00:09:59;7.28;;;4.45;;
71937;SDS011;59810;48.800;9.086;2022-07-29T00:12:24;7.67;;;4.17;;
71937;SDS011;59810;48.800;9.086;2022-07-29T00:14:53;7.97;;;4.70;;
71937;SDS011;59810;48.800;9.086;2022-07-29T00:17:23;7.90;;;4.60;;
71937;SDS011;59810;48.800;9.086;2022-07-29T00:19:49;6.82;;;4.45;;
71937;SDS011;59810;48.800;9.086;2022-07-29T00:22:14;8.07;;;4.70;;
71937;SDS011;59810;48.800;9.086;2022-07-29T00:24:39;6.85;;;4.15;;
71937;SDS011;59810;48.800;9.086;2022-07-29T00:27:05;7.50;;;4.37;;
71937;SDS011;59810;48.800;9.086;2022-07-29T00:29:30;7.73;;;4.37;;
71937;SDS011;59810;48.800;9.086;2022-07-29T00:31:55;8.50;;;4.60;;
71937;SDS011;59810;48.800;9.086;2022-07-29T00:34:21;6.77;;;3.90;;
71937;SDS011;59810;48.800;9.086;2022-07-29T00:37:05;9.07;;;4.40;;
71937;SDS011;59810;48.800;9.086;2022-07-29T00:39:30;6.37;;;4.10;;
71937;SDS011;59810;48.800;9.086;2022-07-29T00:41:56;7.70;;;4.00;;
71937;SDS011;59810;48.800;9.086;2022-07-29T00:44:23;8.10;;;3.97;;
71937;SDS011;59810;48.800;9.086;2022-07-29T00:46:49;6.23;;;3.87;;
71937;SDS011;59810;48.800;9.086;2022-07-29T00:49:17;7.35;;;3.95;;
71937;SDS011;59810;48.800;9.086;2022-07-29T00:51:43;6.40;;;3.87;;
71937;SDS011;59810;48.800;9.086;2022-07-29T00:54:09;6.10;;;3.60;;
71937;SDS011;59810;48.800;9.086;2022-07-29T00:56:34;8.20;;;4.00;;
71937;SDS011;59810;48.800;9.086;2022-07-29T00:59:04;9.23;;;4.23;;
71937;SDS011;59810;48.800;9.086;2022-07-29T01:01:29;7.65;;;3.90;;
71937;SDS011;59810;48.800;9.086;2022-07-29T01:03:55;6.73;;;4.00;;
71937;SDS011;59810;48.800;9.086;2022-07-29T01:06:20;6.68;;;4.03;;
71937;SDS011;59810;48.800;9.086;2022-07-29T01:08:46;6.03;;;3.70;;
71937;SDS011;59810;48.800;9.086;2022-07-29T01:11:12;7.20;;;4.18;;
71937;SDS011;59810;48.800;9.086;2022-07-29T01:13:40;7.25;;;4.03;;
71937;SDS011;59810;48.800;9.086;2022-07-29T01:16:08;6.90;;;4.03;;
71937;SDS011;59810;48.800;9.086;2022-07-29T01:18:44;7.68;;;3.97;;
71937;SDS011;59810;48.800;9.086;2022-07-29T01:29:55;8.10;;;4.07;;
71937;SDS011;59810;48.800;9.086;2022-07-29T01:32:25;7.95;;;3.85;;
71937;SDS011;59810;48.800;9.086;2022-07-29T01:35:03;7.13;;;3.60;;
71937;SDS011;59810;48.800;9.086;2022-07-29T01:37:38;6.50;;;3.92;;
71937;SDS011;59810;48.800;9.086;2022-07-29T01:40:11;8.00;;;3.70;;
71937;SDS011;59810;48.800;9.086;2022-07-29T01:42:45;7.35;;;4.00;;
71937;SDS011;59810;48.800;9.086;2022-07-29T01:45:15;7.53;;;3.88;;
71937;SDS011;59810;48.800;9.086;2022-07-29T01:47:56;7.07;;;3.70;;
71937;SDS011;59810;48.800;9.086;2022-07-29T01:50:56;6.65;;;3.67;;
71937;SDS011;59810;48.800;9.086;2022-07-29T01:53:29;5.97;;;3.78;;
71937;SDS011;59810;48.800;9.086;2022-07-29T01:56:01;6.05;;;3.65;;
71937;SDS011;59810;48.800;9.086;2022-07-29T01:58:28;7.97;;;3.65;;
71937;SDS011;59810;48.800;9.086;2022-07-29T02:00:56;6.53;;;3.80;;
71937;SDS011;59810;48.800;9.086;2022-07-29T02:03:23;5.57;;;3.33;;
71937;SDS011;59810;48.800;9.086;2022-07-29T02:05:51;5.30;;;3.10;;
71937;SDS011;59810;48.800;9.086;2022-07-29T02:08:18;6.80;;;3.47;;
71937;SDS011;59810;48.800;9.086;2022-07-29T02:10:45;5.93;;;3.50;;
71937;SDS011;59810;48.800;9.086;2022-07-29T02:13:13;6.10;;;3.77;;
71937;SDS011;59810;48.800;9.086;2022-07-29T02:15:41;7.93;;;3.28;;
71937;SDS011;59810;48.800;9.086;2022-07-29T02:18:11;5.93;;;3.25;;
71937;SDS011;59810;48.800;9.086;2022-07-29T02:20:46;6.45;;;3.78;;
71937;SDS011;59810;48.800;9.086;2022-07-29T02:23:14;5.97;;;3.22;;
71937;SDS011;59810;48.800;9.086;2022-07-29T02:25:43;6.63;;;3.23;;
71937;SDS011;59810;48.800;9.086;2022-07-29T02:28:08;5.63;;;3.20;;
71937;SDS011;59810;48.800;9.086;2022-07-29T02:30:38;6.87;;;3.20;;
71937;SDS011;59810;48.800;9.086;2022-07-29T02:33:06;5.30;;;2.95;;
71937;SDS011;59810;48.800;9.086;2022-07-29T02:35:34;5.43;;;3.10;;
71937;SDS011;59810;48.800;9.086;2022-07-29T02:38:03;5.70;;;3.03;;
71937;SDS011;59810;48.800;9.086;2022-07-29T02:40:47;5.28;;;2.85;;
71937;SDS011;59810;48.800;9.086;2022-07-29T02:43:15;6.13;;;2.80;;
71937;SDS011;59810;48.800;9.086;2022-07-29T02:45:43;6.05;;;3.30;;
71937;SDS011;59810;48.800;9.086;2022-07-29T02:48:10;6.72;;;3.20;;
71937;SDS011;59810;48.800;9.086;2022-07-29T02:50:44;5.68;;;3.10;;
71937;SDS011;59810;48.800;9.086;2022-07-29T02:53:18;6.57;;;3.50;;
71937;SDS011;59810;48.800;9.086;2022-07-29T03:00:59;5.60;;;3.35;;
71937;SDS011;59810;48.800;9.086;2022-07-29T03:03:29;6.78;;;3.05;;
71937;SDS011;59810;48.800;9.086;2022-07-29T03:05:59;6.95;;;3.47;;
71937;SDS011;59810;48.800;9.086;2022-07-29T03:08:29;5.80;;;3.20;;
71937;SDS011;59810;48.800;9.086;2022-07-29T03:10:57;6.13;;;3.60;;
71937;SDS011;59810;48.800;9.086;2022-07-29T03:13:22;5.82;;;3.22;;
71937;SDS011;59810;48.800;9.086;2022-07-29T03:15:49;7.70;;;3.60;;
71937;SDS011;59810;48.800;9.086;2022-07-29T03:18:15;5.47;;;2.97;;
71937;SDS011;59810;48.800;9.086;2022-07-29T03:20:42;5.78;;;3.35;;
71937;SDS011;59810;48.800;9.086;2022-07-29T03:23:08;6.63;;;3.53;;
71937;SDS011;59810;48.800;9.086;2022-07-29T03:25:33;7.27;;;3.40;;
71937;SDS011;59810;48.800;9.086;2022-07-29T03:27:59;5.90;;;3.50;;
71937;SDS011;59810;48.800;9.086;2022-07-29T03:30:24;5.70;;;2.93;;
71937;SDS011;59810;48.800;9.086;2022-07-29T03:32:50;5.90;;;3.17;;
71937;SDS011;59810;48.800;9.086;2022-07-29T03:35:16;6.82;;;3.13;;
71937;SDS011;59810;48.800;9.086;2022-07-29T03:37:42;7.22;;;3.05;;
71937;SDS011;59810;48.800;9.086;2022-07-29T03:40:09;6.27;;;2.93;;
71937;SDS011;59810;48.800;9.086;2022-07-29T03:42:39;5.63;;;3.08;;
71937;SDS011;59810;48.800;9.086;2022-07-29T03:45:08;8.95;;;3.40;;
71937;SDS011;59810;48.800;9.086;2022-07-29T03:47:39;6.05;;;2.90;;
71937;SDS011;59810;48.800;9.086;2022-07-29T03:50:11;5.10;;;2.80;;
71937;SDS011;59810;48.800;9.086;2022-07-29T03:52:38;5.57;;;3.27;;
71937;SDS011;59810;48.800;9.086;2022-07-29T03:55:04;5.70;;;3.13;;
71937;SDS011;59810;48.800;9.086;2022-07-29T03:57:30;5.97;;;2.85;;
71937;SDS011;59810;48.800;9.086;2022-07-29T03:59:58;7.25;;;3.22;;
71937;SDS011;59810;48.800;9.086;2022-07-29T04:02:26;5.67;;;3.00;;
71937;SDS011;59810;48.800;9.086;2022-07-29T04:04:52;5.20;;;2.90;;
71937;SDS011;59810;48.800;9.086;2022-07-29T04:07:18;6.57;;;3.20;;
71937;SDS011;59810;48.800;9.086;2022-07-29T04:09:43;7.73;;;3.83;;
71937;SDS011;59810;48.800;9.086;2022-07-29T04:12:08;8.10;;;3.55;;
71937;SDS011;59810;48.800;9.086;2022-07-29T04:14:34;5.93;;;3.13;;
71937;SDS011;59810;48.800;9.086;2022-07-29T04:17:00;6.53;;;3.33;;
71937;SDS011;59810;48.800;9.086;2022-07-29T04:19:27;5.97;;;3.33;;
71937;SDS011;59810;48.800;9.086;2022-07-29T04:21:52;5.90;;;3.40;;
71937;SDS011;59810;48.800;9.086;2022-07-29T04:24:20;6.43;;;3.93;;
71937;SDS011;59810;48.800;9.086;2022-07-29T04:26:46;6.32;;;3.40;;
71937;SDS011;59810;48.800;9.086;2022-07-29T04:29:11;5.53;;;3.20;;
71937;SDS011;59810;48.800;9.086;2022-07-29T04:31:39;6.65;;;3.40;;
71937;SDS011;59810;48.800;9.086;2022-07-29T04:34:07;6.63;;;3.13;;
71937;SDS011;59810;48.800;9.086;2022-07-29T04:36:32;6.85;;;3.22;;
71937;SDS011;59810;48.800;9.086;2022-07-29T04:38:58;7.63;;;3.67;;
71937;SDS011;59810;48.800;9.086;2022-07-29T04:41:27;6.25;;;3.65;;
71937;SDS011;59810;48.800;9.086;2022-07-29T04:43:52;6.95;;;3.33;;
71937;SDS011;59810;48.800;9.086;2022-07-29T04:46:18;6.30;;;3.77;;
71937;SDS011;59810;48.800;9.086;2022-07-29T04:48:47;7.77;;;3.50;;
71937;SDS011;59810;48.800;9.086;2022-07-29T04:51:12;7.07;;;3.50;;
71937;SDS011;59810;48.800;9.086;2022-07-29T04:53:38;5.72;;;3.25;;
71937;SDS011;59810;48.800;9.086;2022-07-29T04:56:04;5.70;;;3.47;;
71937;SDS011;59810;48.800;9.086;2022-07-29T04:58:32;6.03;;;3.40;;
71937;SDS011;59810;48.800;9.086;2022-07-29T05:01:02;8.00;;;3.63;;
71937;SDS011;59810;48.800;9.086;2022-07-29T05:03:30;6.85;;;3.10;;
71937;SDS011;59810;48.800;9.086;2022-07-29T05:05:55;6.57;;;3.20;;
71937;SDS011;59810;48.800;9.086;2022-07-29T05:08:23;6.15;;;3.35;;
71937;SDS011;59810;48.800;9.086;2022-07-29T05:10:51;5.80;;;3.33;;
71937;SDS011;59810;48.800;9.086;2022-07-29T05:13:19;5.72;;;3.20;;
71937;SDS011;59810;48.800;9.086;2022-07-29T05:15:46;5.45;;;3.13;;
71937;SDS011;59810;48.800;9.086;2022-07-29T05:18:12;8.30;;;3.70;;
71937;SDS011;59810;48.800;9.086;2022-07-29T05:20:37;6.45;;;2.97;;
71937;SDS011;59810;48.800;9.086;2022-07-29T05:23:03;5.53;;;2.83;;
71937;SDS011;59810;48.800;9.086;2022-07-29T05:25:31;5.83;;;3.00;;
71937;SDS011;59810;48.800;9.086;2022-07-29T05:27:56;6.65;;;3.20;;
71937;SDS011;59810;48.800;9.086;2022-07-29T05:30:22;5.57;;;2.97;;
71937;SDS011;59810;48.800;9.086;2022-07-29T05:32:48;5.53;;;2.70;;
71937;SDS011;59810;48.800;9.086;2022-07-29T05:35:14;5.17;;;2.73;;
71937;SDS011;59810;48.800;9.086;2022-07-29T05:37:40;7.88;;;3.00;;
71937;SDS011;59810;48.800;9.086;2022-07-29T05:40:06;5.95;;;3.25;;
71937;SDS011;59810;48.800;9.086;2022-07-29T05:42:34;5.38;;;2.95;;
71937;SDS011;59810;48.800;9.086;2022-07-29T05:45:00;6.23;;;3.00;;
71937;SDS011;59810;48.800;9.086;2022-07-29T05:47:26;6.00;;;2.60;;
71937;SDS011;59810;48.800;9.086;2022-07-29T05:49:51;5.60;;;2.90;;
71937;SDS011;59810;48.800;9.086;2022-07-29T05:52:17;4.97;;;2.83;;
71937;SDS011;59810;48.800;9.086;2022-07-29T05:54:45;5.85;;;2.90;;
71937;SDS011;59810;48.800;9.086;2022-07-29T05:57:17;6.33;;;3.07;;
71937;SDS011;59810;48.800;9.086;2022-07-29T05:59:43;5.50;;;3.00;;
71937;SDS011;59810;48.800;9.086;2022-07-29T06:02:08;6.00;;;3.30;;
71937;SDS011;59810;48.800;9.086;2022-07-29T06:04:34;11.83;;;3.87;;
71937;SDS011;59810;48.800;9.086;2022-07-29T06:07:01;7.10;;;3.20;;
71937;SDS011;59810;48.800;9.086;2022-07-29T06:09:27;6.80;;;3.13;;
71937;SDS011;59810;48.800;9.086;2022-07-29T06:11:55;6.22;;;3.53;;
71937;SDS011;59810;48.800;9.086;2022-07-29T06:14:20;8.27;;;3.07;;
71937;SDS011;59810;48.800;9.086;2022-07-29T06:16:46;6.85;;;3.30;;
71937;SDS011;59810;48.800;9.086;2022-07-29T06:19:11;6.00;;;3.30;;
71937;SDS011;59810;48.800;9.086;2022-07-29T06:21:40;5.37;;;3.00;;
71937;SDS011;59810;48.800;9.086;2022-07-29T06:24:13;5.90;;;3.63;;
71937;SDS011;59810;48.800;9.086;2022-07-29T06:26:39;7.40;;;3.22;;
71937;SDS011;59810;48.800;9.086;2022-07-29T06:29:05;7.23;;;3.70;;
71937;SDS011;59810;48.800;9.086;2022-07-29T06:31:31;6.55;;;3.35;;
71937;SDS011;59810;48.800;9.086;2022-07-29T06:33:58;6.53;;;3.05;;
71937;SDS011;59810;48.800;9.086;2022-07-29T06:36:24;8.40;;;3.80;;
71937;SDS011;59810;48.800;9.086;2022-07-29T06:38:49;8.10;;;3.47;;
71937;SDS011;59810;48.800;9.086;2022-07-29T06:41:17;6.78;;;3.67;;
71937;SDS011;59810;48.800;9.086;2022-07-29T06:43:43;5.93;;;3.33;;
71937;SDS011;59810;48.800;9.086;2022-07-29T06:46:12;7.35;;;3.22;;
71937;SDS011;59810;48.800;9.086;2022-07-29T06:48:39;8.23;;;3.30;;
71937;SDS011;59810;48.800;9.086;2022-07-29T06:51:07;9.48;;;4.03;;
71937;SDS011;59810;48.800;9.086;2022-07-29T06:53:36;7.57;;;3.72;;
71937;SDS011;59810;48.800;9.086;2022-07-29T06:56:05;9.63;;;3.30;;
71937;SDS011;59810;48.800;9.086;2022-07-29T06:58:33;5.88;;;3.60;;
71937;SDS011;59810;48.800;9.086;2022-07-29T07:01:00;6.50;;;3.45;;
71937;SDS011;59810;48.800;9.086;2022-07-29T07:03:28;7.90;;;3.33;;
71937;SDS011;59810;48.800;9.086;2022-07-29T07:05:54;7.83;;;3.67;;
71937;SDS011;59810;48.800;9.086;2022-07-29T07:08:22;6.45;;;4.03;;
71937;SDS011;59810;48.800;9.086;2022-07-29T07:10:49;6.32;;;3.80;;
71937;SDS011;59810;48.800;9.086;2022-07-29T07:13:17;7.30;;;3.72;;
71937;SDS011;59810;48.800;9.086;2022-07-29T07:15:43;6.83;;;3.53;;
71937;SDS011;59810;48.800;9.086;2022-07-29T07:18:10;6.55;;;3.25;;
71937;SDS011;59810;48.800;9.086;2022-07-29T07:20:35;6.87;;;3.83;;
71937;SDS011;59810;48.800;9.086;2022-07-29T07:23:03;7.13;;;3.90;;
71937;SDS011;59810;48.800;9.086;2022-07-29T07:25:29;7.07;;;3.90;;
71937;SDS011;59810;48.800;9.086;2022-07-29T07:27:55;6.60;;;3.80;;
71937;SDS011;59810;48.800;9.086;2022-07-29T07:30:20;6.77;;;4.20;;
71937;SDS011;59810;48.800;9.086;2022-07-29T07:32:46;8.13;;;3.77;;
71937;SDS011;59810;48.800;9.086;2022-07-29T07:35:11;6.07;;;3.73;;
71937;SDS011;59810;48.800;9.086;2022-07-29T07:37:37;7.15;;;3.80;;
71937;SDS011;59810;48.800;9.086;2022-07-29T07:40:05;7.27;;;4.30;;
71937;SDS011;59810;48.800;9.086;2022-07-29T07:42:34;7.45;;;4.00;;
71937;SDS011;59810;48.800;9.086;2022-07-29T07:45:00;7.40;;;3.78;;
71937;SDS011;59810;48.800;9.086;2022-07-29T07:47:28;7.33;;;4.37;;
71937;SDS011;59810;48.800;9.086;2022-07-29T07:49:53;10.90;;;4.13;;
71937;SDS011;59810;48.800;9.086;2022-07-29T07:52:19;10.97;;;4.07;;
71937;SDS011;59810;48.800;9.086;2022-07-29T07:54:48;8.30;;;4.00;;
71937;SDS011;59810;48.800;9.086;2022-07-29T07:57:16;6.95;;;3.78;;
71937;SDS011;59810;48.800;9.086;2022-07-29T07:59:44;8.77;;;4.32;;
71937;SDS011;59810;48.800;9.086;2022-07-29T08:02:09;8.03;;;4.27;;
71937;SDS011;59810;48.800;9.086;2022-07-29T08:04:35;7.93;;;4.10;;
71937;SDS011;59810;48.800;9.086;2022-07-29T08:07:00;6.53;;;3.85;;
71937;SDS011;59810;48.800;9.086;2022-07-29T08:09:27;6.30;;;3.83;;
71937;SDS011;59810;48.800;9.086;2022-07-29T08:11:54;7.50;;;3.80;;
71937;SDS011;59810;48.800;9.086;2022-07-29T08:14:20;7.45;;;4.30;;
71937;SDS011;59810;48.800;9.086;2022-07-29T08:16:47;7.87;;;4.33;;
71937;SDS011;59810;48.800;9.086;2022-07-29T08:19:13;9.07;;;4.20;;
71937;SDS011;59810;48.800;9.086;2022-07-29T08:21:41;6.37;;;4.30;;
71937;SDS011;59810;48.800;9.086;2022-07-29T08:24:09;9.77;;;4.18;;
71937;SDS011;59810;48.800;9.086;2022-07-29T08:26:57;8.35;;;4.53;;
71937;SDS011;59810;48.800;9.086;2022-07-29T08:29:23;8.77;;;5.13;;
71937;SDS011;59810;48.800;9.086;2022-07-29T08:31:48;7.40;;;4.63;;
71937;SDS011;59810;48.800;9.086;2022-07-29T08:34:17;7.95;;;4.43;;
71937;SDS011;59810;48.800;9.086;2022-07-29T08:36:42;8.17;;;4.33;;
71937;SDS011;59810;48.800;9.086;2022-07-29T08:39:09;7.53;;;4.63;;
71937;SDS011;59810;48.800;9.086;2022-07-29T08:41:37;7.40;;;4.17;;
71937;SDS011;59810;48.800;9.086;2022-07-29T08:44:07;8.00;;;4.28;;
71937;SDS011;59810;48.800;9.086;2022-07-29T08:46:37;7.55;;;4.53;;
71937;SDS011;59810;48.800;9.086;2022-07-29T08:49:04;10.15;;;4.50;;
71937;SDS011;59810;48.800;9.086;2022-07-29T08:51:29;7.80;;;4.50;;
71937;SDS011;59810;48.800;9.086;2022-07-29T08:53:56;8.80;;;4.38;;
71937;SDS011;59810;48.800;9.086;2022-07-29T08:56:22;6.97;;;4.32;;
71937;SDS011;59810;48.800;9.086;2022-07-29T08:58:48;6.87;;;4.30;;
71937;SDS011;59810;48.800;9.086;2022-07-29T09:01:16;8.95;;;4.50;;
71937;SDS011;59810;48.800;9.086;2022-07-29T09:03:45;10.48;;;4.47;;
71937;SDS011;59810;48.800;9.086;2022-07-29T09:06:14;9.10;;;4.80;;
71937;SDS011;59810;48.800;9.086;2022-07-29T09:08:41;9.43;;;4.47;;
71937;SDS011;59810;48.800;9.086;2022-07-29T09:11:07;9.48;;;4.25;;
71937;SDS011;59810;48.800;9.086;2022-07-29T09:13:33;7.97;;;4.47;;
71937;SDS011;59810;48.800;9.086;2022-07-29T09:15:59;8.82;;;4.97;;
71937;SDS011;59810;48.800;9.086;2022-07-29T09:21:08;7.50;;;4.90;;
71937;SDS011;59810;48.800;9.086;2022-07-29T09:26:35;8.97;;;5.00;;
71937;SDS011;59810;48.800;9.086;2022-07-29T09:29:09;6.63;;;4.63;;
71937;SDS011;59810;48.800;9.086;2022-07-29T09:31:36;8.35;;;4.68;;
71937;SDS011;59810;48.800;9.086;2022-07-29T09:34:03;8.10;;;4.60;;
71937;SDS011;59810;48.800;9.086;2022-07-29T09:36:30;7.97;;;4.93;;
71937;SDS011;59810;48.800;9.086;2022-07-29T09:38:59;7.67;;;4.60;;
71937;SDS011;59810;48.800;9.086;2022-07-29T09:41:25;7.03;;;4.72;;
71937;SDS011;59810;48.800;9.086;2022-07-29T09:43:58;10.45;;;5.20;;
71937;SDS011;59810;48.800;9.086;2022-07-29T09:46:27;8.03;;;4.73;;
71937;SDS011;59810;48.800;9.086;2022-07-29T09:49:07;9.77;;;4.90;;
71937;SDS011;59810;48.800;9.086;2022-07-29T09:51:34;9.40;;;5.93;;
71937;SDS011;59810;48.800;9.086;2022-07-29T09:54:00;10.60;;;5.43;;
71937;SDS011;59810;48.800;9.086;2022-07-29T09:56:39;10.75;;;5.20;;
71937;SDS011;59810;48.800;9.086;2022-07-29T09:59:06;8.10;;;5.40;;
71937;SDS011;59810;48.800;9.086;2022-07-29T10:01:36;9.27;;;5.47;;
71937;SDS011;59810;48.800;9.086;2022-07-29T10:04:02;8.43;;;5.70;;
71937;SDS011;59810;48.800;9.086;2022-07-29T10:06:27;7.57;;;5.00;;
71937;SDS011;59810;48.800;9.086;2022-07-29T10:09:06;8.73;;;5.87;;
71937;SDS011;59810;48.800;9.086;2022-07-29T10:11:37;7.80;;;4.90;;
71937;SDS011;59810;48.800;9.086;2022-07-29T10:14:03;8.90;;;5.10;;
71937;SDS011;59810;48.800;9.086;2022-07-29T10:16:30;8.20;;;4.90;;
71937;SDS011;59810;48.800;9.086;2022-07-29T10:18:59;7.90;;;5.50;;
71937;SDS011;59810;48.800;9.086;2022-07-29T10:21:27;7.65;;;4.97;;
71937;SDS011;59810;48.800;9.086;2022-07-29T10:23:54;8.30;;;5.13;;
71937;SDS011;59810;48.800;9.086;2022-07-29T10:26:22;8.75;;;5.50;;
71937;SDS011;59810;48.800;9.086;2022-07-29T10:28:48;9.18;;;5.00;;
71937;SDS011;59810;48.800;9.086;2022-07-29T10:31:15;10.07;;;5.37;;
71937;SDS011;59810;48.800;9.086;2022-07-29T10:44:41;8.02;;;5.13;;
71937;SDS011;59810;48.800;9.086;2022-07-29T10:47:07;6.57;;;4.97;;
71937;SDS011;59810;48.800;9.086;2022-07-29T10:49:33;7.93;;;4.72;;
71937;SDS011;59810;48.800;9.086;2022-07-29T10:52:03;7.67;;;4.33;;
71937;SDS011;59810;48.800;9.086;2022-07-29T10:57:10;9.00;;;4.53;;
71937;SDS011;59810;48.800;9.086;2022-07-29T11:00:27;7.47;;;4.47;;
71937;SDS011;59810;48.800;9.086;2022-07-29T11:07:35;9.75;;;4.90;;
71937;SDS011;59810;48.800;9.086;2022-07-29T11:15:02;9.83;;;5.00;;
71937;SDS011;59810;48.800;9.086;2022-07-29T11:28:39;8.32;;;5.35;;
71937;SDS011;59810;48.800;9.086;2022-07-29T11:37:09;10.77;;;4.53;;
71937;SDS011;59810;48.800;9.086;2022-07-29T11:39:31;8.50;;;4.80;;
71937;SDS011;59810;48.800;9.086;2022-07-29T11:47:31;7.40;;;4.87;;
71937;SDS011;59810;48.800;9.086;2022-07-29T11:49:59;6.97;;;4.28;;
71937;SDS011;59810;48.800;9.086;2022-07-29T11:52:38;8.38;;;4.70;;
71937;SDS011;59810;48.800;9.086;2022-07-29T11:55:10;7.70;;;4.43;;
71937;SDS011;59810;48.800;9.086;2022-07-29T11:57:38;6.82;;;4.80;;
71937;SDS011;59810;48.800;9.086;2022-07-29T12:00:11;9.97;;;4.73;;
71937;SDS011;59810;48.800;9.086;2022-07-29T12:02:45;5.95;;;4.35;;
71937;SDS011;59810;48.800;9.086;2022-07-29T12:05:10;6.97;;;3.97;;
71937;SDS011;59810;48.800;9.086;2022-07-29T12:07:38;7.57;;;4.43;;
71937;SDS011;59810;48.800;9.086;2022-07-29T12:10:05;6.57;;;4.03;;
71937;SDS011;59810;48.800;9.086;2022-07-29T12:12:31;7.38;;;4.95;;
71937;SDS011;59810;48.800;9.086;2022-07-29T12:14:57;7.53;;;4.20;;
71937;SDS011;59810;48.800;9.086;2022-07-29T12:17:32;7.38;;;4.00;;
71937;SDS011;59810;48.800;9.086;2022-07-29T12:20:02;6.25;;;4.43;;
71937;SDS011;59810;48.800;9.086;2022-07-29T12:22:30;8.17;;;4.70;;
71937;SDS011;59810;48.800;9.086;2022-07-29T12:25:08;7.03;;;4.63;;
71937;SDS011;59810;48.800;9.086;2022-07-29T12:27:44;15.60;;;4.95;;
71937;SDS011;59810;48.800;9.086;2022-07-29T12:30:11;10.73;;;4.82;;
71937;SDS011;59810;48.800;9.086;2022-07-29T12:32:42;9.20;;;5.32;;
71937;SDS011;59810;48.800;9.086;2022-07-29T12:35:15;8.00;;;5.00;;
71937;SDS011;59810;48.800;9.086;2022-07-29T12:37:44;7.22;;;4.70;;
71937;SDS011;59810;48.800;9.086;2022-07-29T12:40:13;7.50;;;5.30;;
71937;SDS011;59810;48.800;9.086;2022-07-29T12:42:41;8.90;;;4.80;;
71937;SDS011;59810;48.800;9.086;2022-07-29T12:45:30;5.97;;;4.50;;
71937;SDS011;59810;48.800;9.086;2022-07-29T12:47:55;10.57;;;5.20;;
71937;SDS011;59810;48.800;9.086;2022-07-29T12:50:21;7.75;;;4.38;;
71937;SDS011;59810;48.800;9.086;2022-07-29T12:52:46;8.67;;;4.30;;
71937;SDS011;59810;48.800;9.086;2022-07-29T12:55:12;10.80;;;4.47;;
71937;SDS011;59810;48.800;9.086;2022-07-29T12:57:47;8.30;;;4.40;;
71937;SDS011;59810;48.800;9.086;2022-07-29T13:00:15;10.95;;;4.93;;
71937;SDS011;59810;48.800;9.086;2022-07-29T13:02:42;7.93;;;3.97;;
71937;SDS011;59810;48.800;9.086;2022-07-29T13:05:08;7.05;;;4.03;;
71937;SDS011;59810;48.800;9.086;2022-07-29T13:07:36;6.47;;;4.13;;
71937;SDS011;59810;48.800;9.086;2022-07-29T13:15:27;7.07;;;3.90;;
71937;SDS011;59810;48.800;9.086;2022-07-29T13:17:53;5.65;;;3.20;;
71937;SDS011;59810;48.800;9.086;2022-07-29T13:20:18;6.63;;;3.60;;
71937;SDS011;59810;48.800;9.086;2022-07-29T13:22:49;6.97;;;3.42;;
71937;SDS011;59810;48.800;9.086;2022-07-29T13:25:15;8.40;;;3.93;;
71937;SDS011;59810;48.800;9.086;2022-07-29T13:27:52;6.93;;;4.20;;
71937;SDS011;59810;48.800;9.086;2022-07-29T13:30:19;6.50;;;4.35;;
71937;SDS011;59810;48.800;9.086;2022-07-29T13:32:46;8.30;;;4.20;;
71937;SDS011;59810;48.800;9.086;2022-07-29T13:35:12;8.73;;;4.38;;
71937;SDS011;59810;48.800;9.086;2022-07-29T13:37:38;8.60;;;4.30;;
71937;SDS011;59810;48.800;9.086;2022-07-29T13:40:06;7.73;;;4.17;;
71937;SDS011;59810;48.800;9.086;2022-07-29T13:42:33;6.78;;;4.10;;
71937;SDS011;59810;48.800;9.086;2022-07-29T13:44:59;6.03;;;3.63;;
71937;SDS011;59810;48.800;9.086;2022-07-29T13:47:25;7.10;;;4.20;;
71937;SDS011;59810;48.800;9.086;2022-07-29T13:49:51;6.87;;;4.43;;
71937;SDS011;59810;48.800;9.086;2022-07-29T13:52:21;7.60;;;4.60;;
71937;SDS011;59810;48.800;9.086;2022-07-29T13:54:47;6.95;;;3.95;;
71937;SDS011;59810;48.800;9.086;2022-07-29T13:57:12;8.30;;;4.83;;
71937;SDS011;59810;48.800;9.086;2022-07-29T13:59:41;6.72;;;4.40;;
71937;SDS011;59810;48.800;9.086;2022-07-29T14:02:08;7.75;;;4.18;;
71937;SDS011;59810;48.800;9.086;2022-07-29T14:04:37;7.20;;;4.38;;
71937;SDS011;59810;48.800;9.086;2022-07-29T14:07:03;6.43;;;4.10;;
71937;SDS011;59810;48.800;9.086;2022-07-29T14:09:29;6.90;;;4.23;;
71937;SDS011;59810;48.800;9.086;2022-07-29T14:11:54;6.25;;;3.67;;
71937;SDS011;59810;48.800;9.086;2022-07-29T14:14:20;7.70;;;3.83;;
71937;SDS011;59810;48.800;9.086;2022-07-29T14:16:46;6.60;;;4.50;;
71937;SDS011;59810;48.800;9.086;2022-07-29T14:19:11;10.37;;;5.03;;
71937;SDS011;59810;48.800;9.086;2022-07-29T14:21:39;12.50;;;5.03;;
71937;SDS011;59810;48.800;9.086;2022-07-29T14:24:05;7.63;;;4.23;;
71937;SDS011;59810;48.800;9.086;2022-07-29T14:26:31;7.68;;;4.28;;
71937;SDS011;59810;48.800;9.086;2022-07-29T14:28:56;7.47;;;4.13;;
71937;SDS011;59810;48.800;9.086;2022-07-29T14:31:22;7.13;;;3.95;;
71937;SDS011;59810;48.800;9.086;2022-07-29T14:33:47;6.60;;;3.63;;
71937;SDS011;59810;48.800;9.086;2022-07-29T14:36:12;6.00;;;3.50;;
71937;SDS011;59810;48.800;9.086;2022-07-29T14:38:38;6.70;;;3.70;;
71937;SDS011;59810;48.800;9.086;2022-07-29T14:41:05;5.70;;;4.00;;
71937;SDS011;59810;48.800;9.086;2022-07-29T14:43:31;7.75;;;4.30;;
71937;SDS011;59810;48.800;9.086;2022-07-29T14:45:56;6.93;;;3.90;;
71937;SDS011;59810;48.800;9.086;2022-07-29T14:48:24;7.72;;;3.70;;
71937;SDS011;59810;48.800;9.086;2022-07-29T14:50:49;6.97;;;4.60;;
71937;SDS011;59810;48.800;9.086;2022-07-29T14:53:15;7.13;;;4.05;;
71937;SDS011;59810;48.800;9.086;2022-07-29T14:55:40;7.40;;;4.00;;
71937;SDS011;59810;48.800;9.086;2022-07-29T14:58:08;7.47;;;3.70;;
71937;SDS011;59810;48.800;9.086;2022-07-29T15:00:34;7.70;;;3.80;;
71937;SDS011;59810;48.800;9.086;2022-07-29T15:03:02;6.88;;;4.28;;
71937;SDS011;59810;48.800;9.086;2022-07-29T15:05:34;7.50;;;4.60;;
71937;SDS011;59810;48.800;9.086;2022-07-29T15:07:59;5.72;;;3.83;;
71937;SDS011;59810;48.800;9.086;2022-07-29T15:10:27;7.67;;;3.73;;
71937;SDS011;59810;48.800;9.086;2022-07-29T15:12:55;6.47;;;3.97;;
71937;SDS011;59810;48.800;9.086;2022-07-29T15:15:21;8.82;;;4.43;;
71937;SDS011;59810;48.800;9.086;2022-07-29T15:17:46;5.60;;;3.40;;
71937;SDS011;59810;48.800;9.086;2022-07-29T15:20:12;5.50;;;3.47;;
71937;SDS011;59810;48.800;9.086;2022-07-29T15:22:40;7.28;;;3.28;;
71937;SDS011;59810;48.800;9.086;2022-07-29T15:25:08;9.80;;;3.35;;
71937;SDS011;59810;48.800;9.086;2022-07-29T15:27:36;5.87;;;3.37;;
71937;SDS011;59810;48.800;9.086;2022-07-29T15:30:04;5.95;;;3.10;;
71937;SDS011;59810;48.800;9.086;2022-07-29T15:32:29;6.97;;;3.92;;
71937;SDS011;59810;48.800;9.086;2022-07-29T15:34:55;8.23;;;4.10;;
71937;SDS011;59810;48.800;9.086;2022-07-29T15:37:20;7.10;;;4.10;;
71937;SDS011;59810;48.800;9.086;2022-07-29T15:39:48;9.68;;;3.97;;
71937;SDS011;59810;48.800;9.086;2022-07-29T15:42:14;7.32;;;3.83;;
71937;SDS011;59810;48.800;9.086;2022-07-29T15:44:39;5.50;;;3.67;;
71937;SDS011;59810;48.800;9.086;2022-07-29T15:47:05;6.23;;;3.70;;
71937;SDS011;59810;48.800;9.086;2022-07-29T15:52:00;6.38;;;3.72;;
71937;SDS011;59810;48.800;9.086;2022-07-29T15:54:28;6.97;;;3.77;;
71937;SDS011;59810;48.800;9.086;2022-07-29T15:56:54;5.63;;;3.50;;
71937;SDS011;59810;48.800;9.086;2022-07-29T15:59:20;5.68;;;3.67;;
71937;SDS011;59810;48.800;9.086;2022-07-29T16:01:46;7.83;;;3.40;;
71937;SDS011;59810;48.800;9.086;2022-07-29T16:04:11;6.47;;;3.35;;